createdAt,value
2018-08-13T00:00:02.797Z,13.50
2018-08-13T00:02:31.582Z,13.50
2018-08-13T00:05:00.301Z,13.50
2018-08-13T00:07:29.438Z,13.40
2018-08-13T00:10:02.695Z,13.30
2018-08-13T00:12:31.875Z,13.30
2018-08-13T00:15:00.915Z,13.20
2018-08-13T00:17:29.682Z,13.20
2018-08-13T00:19:58.343Z,13.30
2018-08-13T00:22:27.106Z,13.20
2018-08-13T00:24:55.868Z,13.20
2018-08-13T00:27:24.572Z,13.20
2018-08-13T00:29:53.241Z,13.20
2018-08-13T00:32:21.964Z,13.20
2018-08-13T00:34:50.682Z,13.10
2018-08-13T00:37:19.365Z,13.00
2018-08-13T00:39:48.086Z,12.90
2018-08-13T00:42:16.793Z,12.80
2018-08-13T00:44:45.473Z,12.90
2018-08-13T00:47:14.293Z,12.90
2018-08-13T00:49:42.995Z,13.00
2018-08-13T00:52:11.738Z,13.00
2018-08-13T00:54:40.655Z,13.10
2018-08-13T00:57:09.613Z,13.20
2018-08-13T00:59:38.363Z,13.30
2018-08-13T01:02:07.110Z,13.40
2018-08-13T01:04:35.844Z,13.50
2018-08-13T01:07:04.674Z,13.60
2018-08-13T01:09:33.620Z,13.70
2018-08-13T01:12:02.444Z,13.70
2018-08-13T01:14:31.285Z,13.80
2018-08-13T01:16:59.975Z,13.80
2018-08-13T01:19:28.750Z,13.90
2018-08-13T01:21:57.408Z,14.00
2018-08-13T01:24:26.146Z,14.00
2018-08-13T01:26:54.912Z,14.10
2018-08-13T01:29:23.582Z,14.10
2018-08-13T01:31:52.312Z,14.20
2018-08-13T01:34:21.006Z,14.30
2018-08-13T01:36:49.698Z,14.40
2018-08-13T01:39:18.378Z,14.50
2018-08-13T01:41:47.099Z,14.60
2018-08-13T01:44:15.789Z,14.80
2018-08-13T01:46:44.514Z,14.90
2018-08-13T01:49:13.162Z,15.00
2018-08-13T01:51:41.848Z,15.20
2018-08-13T01:54:10.550Z,15.20
2018-08-13T01:56:39.206Z,15.50
2018-08-13T01:59:07.978Z,15.40
2018-08-13T02:01:36.705Z,15.20
2018-08-13T02:04:05.434Z,15.00
2018-08-13T02:06:34.173Z,14.80
2018-08-13T02:09:02.947Z,14.70
2018-08-13T02:11:31.735Z,14.70
2018-08-13T02:14:00.483Z,14.70
2018-08-13T02:16:29.167Z,14.80
2018-08-13T02:18:57.883Z,14.80
2018-08-13T02:21:26.713Z,14.80
2018-08-13T02:23:55.433Z,14.80
2018-08-13T02:26:24.128Z,14.70
2018-08-13T02:28:52.940Z,14.70
2018-08-13T02:31:21.996Z,14.60
2018-08-13T02:33:50.678Z,14.60
2018-08-13T02:36:19.340Z,14.70
2018-08-13T02:38:48.059Z,14.60
2018-08-13T02:41:16.749Z,14.60
2018-08-13T02:43:45.449Z,14.60
2018-08-13T02:46:14.169Z,14.60
2018-08-13T02:48:42.905Z,14.70
2018-08-13T02:51:11.648Z,14.70
2018-08-13T02:53:40.321Z,14.80
2018-08-13T02:56:09.076Z,15.00
2018-08-13T02:58:37.753Z,15.10
2018-08-13T03:01:06.639Z,15.20
2018-08-13T03:03:35.360Z,15.20
2018-08-13T03:06:04.073Z,15.30
2018-08-13T03:08:32.848Z,15.40
2018-08-13T03:11:01.527Z,15.50
2018-08-13T03:13:30.266Z,15.50
2018-08-13T03:15:59.015Z,15.60
2018-08-13T03:18:27.782Z,15.60
2018-08-13T03:20:56.503Z,15.60
2018-08-13T03:23:25.234Z,15.60
2018-08-13T03:25:54.009Z,15.60
2018-08-13T03:28:22.728Z,15.70
2018-08-13T03:30:51.390Z,15.70
2018-08-13T03:33:20.099Z,15.70
2018-08-13T03:35:48.792Z,15.70
2018-08-13T03:38:17.450Z,15.60
2018-08-13T03:40:46.141Z,15.60
2018-08-13T03:43:14.878Z,15.60
2018-08-13T03:45:43.648Z,15.60
2018-08-13T03:48:12.345Z,15.60
2018-08-13T03:50:41.042Z,15.60
2018-08-13T03:53:09.970Z,15.50
2018-08-13T03:55:38.669Z,15.50
2018-08-13T03:58:07.385Z,15.50
2018-08-13T04:00:36.090Z,15.40
2018-08-13T04:03:05.077Z,15.40
2018-08-13T04:05:33.762Z,15.40
2018-08-13T04:08:02.542Z,15.50
2018-08-13T04:10:31.317Z,15.70
2018-08-13T04:13:00.141Z,15.80
2018-08-13T04:15:28.760Z,15.80
2018-08-13T04:17:57.444Z,15.90
2018-08-13T04:20:26.133Z,16.00
2018-08-13T04:22:54.909Z,16.00
2018-08-13T04:25:23.607Z,16.00
2018-08-13T04:27:52.282Z,16.10
2018-08-13T04:30:20.998Z,16.10
2018-08-13T04:32:49.757Z,16.10
2018-08-13T04:35:18.541Z,16.10
2018-08-13T04:37:47.587Z,16.10
2018-08-13T04:40:17.661Z,16.10
2018-08-13T04:42:47.305Z,16.20
2018-08-13T04:45:16.198Z,16.20
2018-08-13T04:47:49.055Z,16.30
2018-08-13T04:50:17.870Z,16.20
2018-08-13T04:52:46.631Z,16.20
2018-08-13T04:55:15.356Z,16.30
2018-08-13T04:57:44.209Z,16.20
2018-08-13T05:00:12.924Z,16.20
2018-08-13T05:02:41.637Z,16.30
2018-08-13T05:05:11.575Z,16.30
2018-08-13T05:07:40.490Z,16.30
2018-08-13T05:10:10.578Z,16.30
2018-08-13T05:12:40.016Z,16.30
2018-08-13T05:15:09.999Z,16.30
2018-08-13T05:17:38.758Z,16.30
2018-08-13T05:20:08.691Z,16.40
2018-08-13T05:22:37.458Z,16.40
2018-08-13T05:25:07.433Z,16.60
2018-08-13T05:27:36.439Z,17.10
2018-08-13T05:30:06.594Z,17.90
2018-08-13T05:32:35.213Z,18.40
2018-08-13T05:35:04.724Z,18.70
2018-08-13T05:37:33.445Z,18.90
2018-08-13T05:40:02.206Z,19.00
2018-08-13T05:42:31.037Z,18.90
2018-08-13T05:44:59.770Z,18.90
2018-08-13T05:47:28.531Z,18.70
2018-08-13T05:49:57.266Z,18.60
2018-08-13T05:52:26.022Z,18.40
2018-08-13T05:54:54.750Z,18.30
2018-08-13T05:57:23.484Z,18.20
2018-08-13T05:59:52.264Z,18.10
2018-08-13T06:02:20.990Z,18.10
2018-08-13T06:04:49.717Z,18.10
2018-08-13T06:07:18.385Z,18.20
2018-08-13T06:09:47.078Z,18.10
2018-08-13T06:12:15.845Z,18.20
2018-08-13T06:14:44.561Z,18.20
2018-08-13T06:17:13.246Z,18.20
2018-08-13T06:19:41.913Z,18.10
2018-08-13T06:22:10.646Z,18.10
2018-08-13T06:24:39.342Z,18.10
2018-08-13T06:27:08.032Z,18.20
2018-08-13T06:29:36.808Z,18.20
2018-08-13T06:32:59.898Z,18.30
2018-08-13T06:35:28.605Z,18.40
2018-08-13T06:37:57.486Z,18.50
2018-08-13T06:40:26.172Z,18.60
2018-08-13T06:42:54.918Z,18.60
2018-08-13T06:45:23.729Z,18.70
2018-08-13T06:47:52.445Z,18.70
2018-08-13T06:50:21.148Z,18.80
2018-08-13T06:52:49.944Z,18.80
2018-08-13T06:55:18.666Z,18.90
2018-08-13T06:57:47.409Z,18.80
2018-08-13T07:00:16.114Z,18.80
2018-08-13T07:02:44.860Z,18.70
2018-08-13T07:05:13.666Z,18.60
2018-08-13T07:07:42.519Z,18.60
2018-08-13T07:10:12.379Z,18.50
2018-08-13T07:12:42.824Z,18.60
2018-08-13T07:15:12.057Z,18.60
2018-08-13T07:17:40.795Z,18.70
2018-08-13T07:20:15.383Z,18.80
2018-08-13T07:22:44.565Z,18.90
2018-08-13T07:25:13.324Z,19.20
2018-08-13T07:27:42.515Z,19.40
2018-08-13T07:30:13.543Z,19.60
2018-08-13T07:32:42.857Z,19.90
2018-08-13T07:35:11.613Z,19.90
2018-08-13T07:37:40.372Z,20.10
2018-08-13T07:40:13.105Z,20.10
2018-08-13T07:42:41.897Z,20.10
2018-08-13T07:45:10.786Z,20.10
2018-08-13T07:47:39.565Z,20.00
2018-08-13T07:50:10.101Z,19.90
2018-08-13T07:52:38.827Z,20.10
2018-08-13T07:55:07.869Z,20.20
2018-08-13T07:57:36.625Z,20.10
2018-08-13T08:00:06.907Z,20.30
2018-08-13T08:02:35.609Z,20.30
2018-08-13T08:05:05.214Z,20.40
2018-08-13T08:07:33.978Z,20.50
2018-08-13T08:10:02.726Z,20.60
2018-08-13T08:12:31.450Z,20.60
2018-08-13T08:15:00.160Z,20.50
2018-08-13T08:17:28.876Z,20.30
2018-08-13T08:19:57.546Z,20.20
2018-08-13T08:22:26.276Z,20.10
2018-08-13T08:24:55.022Z,20.10
2018-08-13T08:27:23.772Z,20.10
2018-08-13T08:29:52.530Z,20.20
2018-08-13T08:32:21.271Z,20.40
2018-08-13T08:34:50.055Z,20.60
2018-08-13T08:37:18.781Z,20.70
2018-08-13T08:39:47.513Z,21.00
2018-08-13T08:42:16.212Z,21.20
2018-08-13T08:44:44.955Z,21.40
2018-08-13T08:47:13.655Z,21.40
2018-08-13T08:49:42.390Z,21.30
2018-08-13T08:52:11.135Z,21.30
2018-08-13T08:54:39.865Z,21.20
2018-08-13T08:57:08.656Z,21.20
2018-08-13T08:59:37.354Z,21.20
2018-08-13T09:02:06.109Z,21.30
2018-08-13T09:04:34.830Z,21.40
2018-08-13T09:07:03.528Z,21.50
2018-08-13T09:09:32.232Z,21.60
2018-08-13T09:12:00.994Z,21.50
2018-08-13T09:14:29.672Z,21.40
2018-08-13T09:16:58.448Z,21.20
2018-08-13T09:19:38.429Z,21.10
2018-08-13T09:22:18.278Z,20.90
2018-08-13T09:24:58.131Z,20.80
2018-08-13T09:27:38.004Z,20.80
2018-08-13T09:30:17.872Z,21.00
2018-08-13T09:32:57.749Z,21.20
2018-08-13T09:35:29.667Z,21.30
2018-08-13T09:37:58.642Z,21.50
2018-08-13T09:40:28.592Z,21.50
2018-08-13T09:42:57.368Z,21.70
2018-08-13T09:45:26.369Z,21.90
2018-08-13T09:47:55.246Z,22.30
2018-08-13T09:50:24.068Z,22.90
2018-08-13T09:52:52.841Z,23.20
2018-08-13T09:55:21.647Z,23.70
2018-08-13T09:57:50.969Z,24.40
2018-08-13T10:00:26.087Z,25.20
2018-08-13T10:02:54.828Z,25.40
2018-08-13T10:05:23.579Z,25.00
2018-08-13T10:07:52.288Z,24.40
2018-08-13T10:10:20.997Z,24.10
2018-08-13T10:12:49.777Z,24.00
2018-08-13T10:15:18.543Z,23.80
2018-08-13T10:17:47.280Z,23.40
2018-08-13T10:20:19.057Z,23.30
2018-08-13T10:22:48.064Z,23.20
2018-08-13T10:25:16.860Z,23.00
2018-08-13T10:27:45.710Z,23.00
2018-08-13T10:30:16.169Z,23.00
2018-08-13T10:32:45.050Z,23.00
2018-08-13T10:35:13.765Z,22.80
2018-08-13T10:37:42.922Z,22.70
2018-08-13T10:40:16.949Z,22.60
2018-08-13T10:42:46.251Z,22.60
2018-08-13T10:45:15.321Z,22.50
2018-08-13T10:47:44.084Z,22.20
2018-08-13T10:50:13.904Z,21.80
2018-08-13T10:52:42.937Z,21.50
2018-08-13T10:55:13.413Z,21.50
2018-08-13T10:57:42.561Z,22.00
2018-08-13T11:00:13.876Z,22.60
2018-08-13T11:02:42.683Z,22.60
2018-08-13T11:05:12.642Z,23.00
2018-08-13T11:07:41.396Z,23.40
2018-08-13T11:10:12.321Z,23.30
2018-08-13T11:12:41.084Z,23.30
2018-08-13T11:15:13.232Z,23.60
2018-08-13T11:17:41.998Z,24.10
2018-08-13T11:20:10.779Z,23.90
2018-08-13T11:22:40.620Z,23.80
2018-08-13T11:25:11.074Z,24.00
2018-08-13T11:27:39.831Z,24.20
2018-08-13T11:30:10.795Z,24.30
2018-08-13T11:32:39.543Z,24.30
2018-08-13T11:35:08.427Z,24.50
2018-08-13T11:37:37.345Z,24.70
2018-08-13T11:40:09.959Z,24.70
2018-08-13T11:42:38.832Z,24.90
2018-08-13T11:45:07.871Z,25.20
2018-08-13T11:47:37.147Z,25.10
2018-08-13T11:50:13.257Z,24.70
2018-08-13T11:52:42.573Z,24.60
2018-08-13T11:55:11.357Z,24.10
2018-08-13T11:57:40.104Z,23.80
2018-08-13T12:00:10.632Z,23.80
2018-08-13T12:02:39.469Z,24.10
2018-08-13T12:05:10.694Z,24.50
2018-08-13T12:07:39.494Z,24.40
2018-08-13T12:10:09.860Z,24.50
2018-08-13T12:12:39.447Z,24.60
2018-08-13T12:15:08.964Z,24.80
2018-08-13T12:17:37.766Z,24.80
2018-08-13T12:20:09.015Z,24.70
2018-08-13T12:22:37.856Z,24.60
2018-08-13T12:25:07.278Z,24.70
2018-08-13T12:27:36.369Z,24.90
2018-08-13T12:30:07.897Z,25.10
2018-08-13T12:32:36.614Z,25.10
2018-08-13T12:35:06.122Z,25.20
2018-08-13T12:37:34.823Z,25.00
2018-08-13T12:40:04.717Z,25.20
2018-08-13T12:42:33.497Z,25.00
2018-08-13T12:45:02.177Z,24.70
2018-08-13T12:47:31.013Z,24.50
2018-08-13T12:49:59.740Z,24.40
2018-08-13T12:52:28.493Z,24.10
2018-08-13T12:54:57.221Z,23.60
2018-08-13T12:57:25.881Z,23.50
2018-08-13T12:59:54.682Z,23.50
2018-08-13T13:02:23.434Z,23.20
2018-08-13T13:04:52.160Z,23.00
2018-08-13T13:07:20.858Z,23.00
2018-08-13T13:09:49.525Z,22.70
2018-08-13T13:12:18.263Z,22.60
2018-08-13T13:14:47.394Z,22.50
2018-08-13T13:17:16.130Z,22.50
2018-08-13T13:19:44.818Z,22.30
2018-08-13T13:22:13.510Z,22.20
2018-08-13T13:24:42.587Z,22.00
2018-08-13T13:27:11.600Z,21.90
2018-08-13T13:29:41.170Z,21.80
2018-08-13T13:32:10.119Z,21.60
2018-08-13T13:34:39.385Z,21.50
2018-08-13T13:37:09.676Z,21.50
2018-08-13T13:39:40.191Z,21.50
2018-08-13T13:42:09.764Z,21.80
2018-08-13T13:44:38.686Z,22.30
2018-08-13T13:47:08.198Z,23.00
2018-08-13T13:49:38.088Z,23.50
2018-08-13T13:52:06.998Z,23.70
2018-08-13T13:54:35.687Z,23.90
2018-08-13T13:57:04.437Z,23.30
2018-08-13T13:59:33.227Z,23.60
2018-08-13T14:02:03.342Z,23.40
2018-08-13T14:04:32.083Z,23.50
2018-08-13T14:07:00.825Z,23.20
2018-08-13T14:09:29.567Z,23.50
2018-08-13T14:11:58.298Z,23.50
2018-08-13T14:14:27.314Z,23.60
2018-08-13T14:16:56.015Z,23.80
2018-08-13T14:19:24.810Z,23.90
2018-08-13T14:21:53.529Z,23.90
2018-08-13T14:24:22.313Z,24.10
2018-08-13T14:26:50.996Z,24.00
2018-08-13T14:29:19.769Z,23.80
2018-08-13T14:31:48.463Z,23.80
2018-08-13T14:34:17.219Z,24.00
2018-08-13T14:36:45.921Z,23.60
2018-08-13T14:39:14.677Z,23.30
2018-08-13T14:41:44.614Z,22.90
2018-08-13T14:44:13.345Z,22.70
2018-08-13T14:46:42.041Z,22.50
2018-08-13T14:49:10.727Z,22.40
2018-08-13T14:51:39.435Z,22.30
2018-08-13T14:54:08.224Z,22.20
2018-08-13T14:56:36.952Z,22.00
2018-08-13T14:59:06.443Z,21.70
2018-08-13T15:01:35.213Z,21.30
2018-08-13T15:04:03.963Z,20.70
2018-08-13T15:06:32.711Z,20.10
2018-08-13T15:09:01.422Z,19.60
2018-08-13T15:11:36.342Z,19.30
2018-08-13T15:14:05.570Z,19.10
2018-08-13T15:16:34.278Z,19.00
2018-08-13T15:19:02.971Z,19.00
2018-08-13T15:21:31.820Z,19.00
2018-08-13T15:24:00.562Z,19.30
2018-08-13T15:26:29.258Z,19.50
2018-08-13T15:28:57.965Z,19.70
2018-08-13T15:31:26.654Z,20.30
2018-08-13T15:33:55.374Z,20.80
2018-08-13T15:36:24.096Z,20.90
2018-08-13T15:38:52.809Z,20.90
2018-08-13T15:41:21.614Z,20.70
2018-08-13T15:43:50.334Z,20.80
2018-08-13T15:46:19.025Z,20.60
2018-08-13T15:48:47.779Z,20.50
2018-08-13T15:51:16.515Z,20.50
2018-08-13T15:53:45.197Z,20.60
2018-08-13T15:56:13.899Z,20.80
2018-08-13T15:58:42.595Z,21.30
2018-08-13T16:01:11.309Z,21.50
2018-08-13T16:03:40.075Z,21.80
2018-08-13T16:06:08.765Z,21.90
2018-08-13T16:08:37.466Z,21.80
2018-08-13T16:11:06.170Z,21.60
2018-08-13T16:13:34.932Z,21.30
2018-08-13T16:16:03.704Z,21.10
2018-08-13T16:18:32.444Z,21.00
2018-08-13T16:21:01.207Z,20.80
2018-08-13T16:23:29.893Z,20.60
2018-08-13T16:25:58.563Z,20.60
2018-08-13T16:28:27.277Z,20.60
2018-08-13T16:30:55.991Z,20.60
2018-08-13T16:33:24.685Z,20.60
2018-08-13T16:35:53.478Z,20.50
2018-08-13T16:38:22.159Z,20.40
2018-08-13T16:40:50.865Z,20.40
2018-08-13T16:43:19.605Z,20.40
2018-08-13T16:45:48.272Z,20.50
2018-08-13T16:48:17.008Z,20.40
2018-08-13T16:50:45.834Z,20.40
2018-08-13T16:53:14.511Z,20.40
2018-08-13T16:55:43.222Z,20.30
2018-08-13T16:58:12.150Z,20.20
2018-08-13T17:00:40.832Z,20.20
2018-08-13T17:03:09.570Z,20.20
2018-08-13T17:05:38.281Z,20.10
2018-08-13T17:08:07.048Z,20.20
2018-08-13T17:10:35.779Z,20.20
2018-08-13T17:13:04.525Z,20.30
2018-08-13T17:15:33.530Z,20.40
2018-08-13T17:18:03.144Z,20.40
2018-08-13T17:20:33.311Z,20.20
2018-08-13T17:23:02.134Z,20.10
2018-08-13T17:25:30.965Z,19.90
2018-08-13T17:27:59.773Z,19.90
2018-08-13T17:30:28.588Z,20.00
2018-08-13T17:32:58.867Z,20.10
2018-08-13T17:35:29.619Z,20.00
2018-08-13T17:37:59.045Z,19.90
2018-08-13T17:40:28.286Z,19.80
2018-08-13T17:42:57.280Z,19.60
2018-08-13T17:45:25.993Z,19.50
2018-08-13T17:47:54.807Z,19.40
2018-08-13T17:50:24.173Z,19.40
2018-08-13T17:52:52.972Z,19.40
2018-08-13T17:55:21.780Z,19.40
2018-08-13T17:57:50.531Z,19.40
2018-08-13T18:00:22.990Z,19.40
2018-08-13T18:02:51.707Z,19.30
2018-08-13T18:05:22.607Z,19.20
2018-08-13T18:07:51.791Z,19.10
2018-08-13T18:10:29.347Z,19.00
2018-08-13T18:12:59.290Z,18.90
2018-08-13T18:15:28.109Z,18.90
2018-08-13T18:17:56.880Z,18.80
2018-08-13T18:20:25.650Z,18.70
2018-08-13T18:22:54.326Z,18.60
2018-08-13T18:25:23.221Z,18.50
2018-08-13T18:27:52.421Z,18.50
2018-08-13T18:30:23.321Z,18.40
2018-08-13T18:32:52.406Z,18.40
2018-08-13T18:35:21.119Z,18.30
2018-08-13T18:37:49.880Z,18.30
2018-08-13T18:40:20.958Z,18.20
2018-08-13T18:42:49.926Z,18.20
2018-08-13T18:45:18.692Z,18.10
2018-08-13T18:47:48.098Z,18.00
2018-08-13T18:50:18.217Z,18.00
2018-08-13T18:52:47.115Z,18.00
2018-08-13T18:55:17.319Z,18.00
2018-08-13T18:57:46.492Z,18.00
2018-08-13T19:00:16.936Z,18.00
2018-08-13T19:02:45.749Z,18.00
2018-08-13T19:05:15.426Z,17.90
2018-08-13T19:07:44.957Z,17.90
2018-08-13T19:10:14.635Z,17.90
2018-08-13T19:12:43.344Z,17.90
2018-08-13T19:15:15.677Z,17.90
2018-08-13T19:17:44.439Z,17.80
2018-08-13T19:20:14.036Z,17.80
2018-08-13T19:22:43.225Z,17.90
2018-08-13T19:25:20.362Z,17.90
2018-08-13T19:27:49.039Z,17.90
2018-08-13T19:30:18.917Z,17.90
2018-08-13T19:32:48.474Z,18.00
2018-08-13T19:35:17.412Z,18.00
2018-08-13T19:37:46.500Z,17.90
2018-08-13T19:40:18.064Z,17.80
2018-08-13T19:42:47.781Z,17.80
2018-08-13T19:45:17.340Z,17.80
2018-08-13T19:47:46.679Z,17.80
2018-08-13T19:50:15.744Z,17.70
2018-08-13T19:52:45.724Z,17.70
2018-08-13T19:55:14.860Z,17.60
2018-08-13T19:57:43.555Z,17.60
2018-08-13T20:00:19.884Z,17.50
2018-08-13T20:02:49.168Z,17.50
2018-08-13T20:05:19.175Z,17.40
2018-08-13T20:07:47.886Z,17.30
2018-08-13T20:10:17.010Z,17.30
2018-08-13T20:12:46.361Z,17.20
2018-08-13T20:15:15.125Z,17.20
2018-08-13T20:17:44.173Z,17.20
2018-08-13T20:20:16.246Z,17.10
2018-08-13T20:22:45.694Z,17.10
2018-08-13T20:25:16.560Z,17.10
2018-08-13T20:27:45.776Z,17.00
2018-08-13T20:30:17.695Z,17.00
2018-08-13T20:32:47.907Z,17.00
2018-08-13T20:35:16.720Z,16.90
2018-08-13T20:37:45.481Z,16.90
2018-08-13T20:40:15.979Z,16.90
2018-08-13T20:42:45.377Z,16.90
2018-08-13T20:45:16.170Z,16.80
2018-08-13T20:47:45.247Z,16.80
2018-08-13T20:50:16.908Z,16.80
2018-08-13T20:52:46.306Z,16.80
2018-08-13T20:55:21.425Z,16.70
2018-08-13T20:57:50.445Z,16.60
2018-08-13T21:00:20.852Z,16.50
2018-08-13T21:02:49.644Z,16.50
2018-08-13T21:05:18.741Z,16.40
2018-08-13T21:07:48.570Z,16.30
2018-08-13T21:10:19.588Z,16.10
2018-08-13T21:12:48.688Z,16.00
2018-08-13T21:15:17.605Z,16.00
2018-08-13T21:17:46.646Z,16.10
2018-08-13T21:20:19.164Z,16.10
2018-08-13T21:22:48.045Z,16.10
2018-08-13T21:25:16.972Z,16.20
2018-08-13T21:27:45.933Z,16.20
2018-08-13T21:30:14.697Z,16.30
2018-08-13T21:32:44.218Z,16.20
2018-08-13T21:35:16.733Z,16.20
2018-08-13T21:37:45.995Z,16.20
2018-08-13T21:40:14.780Z,16.20
2018-08-13T21:42:43.798Z,16.20
2018-08-13T21:45:12.868Z,16.20
2018-08-13T21:47:41.881Z,16.20
2018-08-13T21:50:17.188Z,16.20
2018-08-13T21:52:46.932Z,16.20
2018-08-13T21:55:15.674Z,16.20
2018-08-13T21:57:44.423Z,16.30
2018-08-13T22:00:37.813Z,16.20
2018-08-13T22:03:09.268Z,16.20
2018-08-13T22:05:38.020Z,16.20
2018-08-13T22:08:06.912Z,16.20
2018-08-13T22:10:35.653Z,16.20
2018-08-13T22:13:04.427Z,16.20
2018-08-13T22:15:33.772Z,16.30
2018-08-13T22:18:06.912Z,16.30
2018-08-13T22:20:36.588Z,16.30
2018-08-13T22:23:07.375Z,16.30
2018-08-13T22:25:39.154Z,16.40
2018-08-13T22:28:09.264Z,16.40
2018-08-13T22:30:38.046Z,16.40
2018-08-13T22:33:08.075Z,16.30
2018-08-13T22:35:36.860Z,16.20
2018-08-13T22:38:06.352Z,16.20
2018-08-13T22:40:35.346Z,16.20
2018-08-13T22:43:04.060Z,16.20
2018-08-13T22:45:32.778Z,16.20
2018-08-13T22:48:01.489Z,16.20
2018-08-13T22:50:30.149Z,16.20
2018-08-13T22:52:59.560Z,16.10
2018-08-13T22:55:28.513Z,16.10
2018-08-13T22:57:57.242Z,16.10
2018-08-13T23:00:25.952Z,16.10
2018-08-13T23:02:54.693Z,16.00
2018-08-13T23:05:26.020Z,16.00
2018-08-13T23:07:54.796Z,16.10
2018-08-13T23:10:24.585Z,16.10
2018-08-13T23:12:54.885Z,16.10
2018-08-13T23:15:23.734Z,16.10
2018-08-13T23:17:53.316Z,16.00
2018-08-13T23:20:24.806Z,16.00
2018-08-13T23:22:59.890Z,16.00
2018-08-13T23:25:29.286Z,16.00
2018-08-13T23:27:59.245Z,16.00
2018-08-13T23:30:28.236Z,16.10
2018-08-13T23:32:57.866Z,16.10
2018-08-13T23:35:27.332Z,16.20
2018-08-13T23:37:56.249Z,16.20
2018-08-13T23:40:25.470Z,16.20
2018-08-13T23:42:54.252Z,16.20
2018-08-13T23:45:25.090Z,16.20
2018-08-13T23:47:53.917Z,16.30
2018-08-13T23:50:23.830Z,16.30
2018-08-13T23:52:54.006Z,16.30
2018-08-13T23:55:32.457Z,16.40
2018-08-13T23:58:01.689Z,16.40
